QTR3N LHBP-OTHH
Flight info
| Callsign | QTR3N |
|---|---|
| Flight time | 5h 19m |
| Altitude | 35000 |
| Route | FAHAZ2L FAHAZ DCT KEROP DCT RAXAD DCT RUGAS DCT GIKAS DCT MES UL609 RDS DCT VANZA DCT RASDA A16 CVO L315 HGD M872 BDB Y214 ASPUS Y432 LADBO T142 LAEEB LAEEB1J |
| Aircraft | A320/M-SDE3FGHIRWY/LB1 |
Departure
| Time | 2026-04-30 15:00 |
|---|---|
| Airport | Budapest Liszt Ferenc International Airport (LHBP) |
Arrival
| Time | 2026-04-30 20:19 |
|---|---|
| Airport | Hamad International Airport (OTHH) |
| Time | Latitude | Longitude | Altitude | Speed | Heading |
|---|---|---|---|---|---|
| 2026-04-30 14:27 | 47.43141 | 19.25908 | 477 ft | 0 kts | 108° |
| 2026-04-30 14:48 | 47.43143 | 19.25899 | 477 ft | 4 kts | 100° |
| 2026-04-30 14:48 | 47.43140 | 19.25865 | 482 ft | 4 kts | 83° |
| 2026-04-30 14:48 | 47.43135 | 19.25827 | 478 ft | 4 kts | 64° |
| 2026-04-30 14:48 | 47.43121 | 19.25803 | 482 ft | 4 kts | 1° |
| 2026-04-30 14:49 | 47.43110 | 19.25808 | 479 ft | 1 kts | 312° |
| 2026-04-30 14:49 | 47.43108 | 19.25811 | 481 ft | 0 kts | 312° |
| 2026-04-30 14:51 | 47.43110 | 19.25807 | 474 ft | 1 kts | 311° |
| 2026-04-30 14:52 | 47.43126 | 19.25780 | 481 ft | 6 kts | 311° |
| 2026-04-30 14:52 | 47.43215 | 19.25639 | 473 ft | 12 kts | 312° |
| 2026-04-30 14:52 | 47.43271 | 19.25546 | 482 ft | 13 kts | 312° |
| 2026-04-30 14:53 | 47.43325 | 19.25366 | 482 ft | 9 kts | 233° |
| 2026-04-30 14:53 | 47.43280 | 19.25301 | 482 ft | 9 kts | 223° |
| 2026-04-30 14:54 | 47.43180 | 19.25166 | 484 ft | 6 kts | 221° |
| 2026-04-30 14:54 | 47.43164 | 19.25145 | 486 ft | 0 kts | 222° |
| 2026-04-30 14:58 | 47.43148 | 19.25123 | 485 ft | 5 kts | 221° |
| 2026-04-30 14:58 | 47.43115 | 19.25073 | 489 ft | 8 kts | 234° |
| 2026-04-30 14:58 | 47.43117 | 19.24911 | 486 ft | 9 kts | 308° |
| 2026-04-30 14:59 | 47.43314 | 19.24588 | 485 ft | 65 kts | 313° |
| 2026-04-30 15:00 | 47.45308 | 19.21471 | 839 ft | 179 kts | 316° |
| 2026-04-30 15:00 | 47.47079 | 19.18773 | 1930 ft | 194 kts | 313° |
| 2026-04-30 15:01 | 47.48222 | 19.14810 | 2720 ft | 231 kts | 271° |
| 2026-04-30 15:01 | 47.47887 | 19.12432 | 3257 ft | 244 kts | 246° |
| 2026-04-30 15:01 | 47.45553 | 19.08626 | 4555 ft | 261 kts | 217° |
| 2026-04-30 15:02 | 47.44080 | 19.06919 | 5037 ft | 276 kts | 219° |
| 2026-04-30 15:02 | 47.42549 | 19.05170 | 5773 ft | 280 kts | 214° |
| 2026-04-30 15:03 | 47.37303 | 19.01147 | 7989 ft | 289 kts | 204° |
| 2026-04-30 15:03 | 47.33595 | 18.98704 | 9386 ft | 295 kts | 204° |
| 2026-04-30 15:04 | 47.29763 | 18.96151 | 10292 ft | 319 kts | 204° |
| 2026-04-30 15:04 | 47.23201 | 18.91724 | 11292 ft | 361 kts | 205° |
| 2026-04-30 15:05 | 47.16247 | 18.86981 | 12988 ft | 373 kts | 205° |
| 2026-04-30 15:06 | 47.11196 | 18.85253 | 14091 ft | 378 kts | 178° |
| 2026-04-30 15:06 | 47.06119 | 18.87022 | 15164 ft | 379 kts | 150° |
| 2026-04-30 15:07 | 47.01762 | 18.91378 | 16171 ft | 382 kts | 141° |
| 2026-04-30 15:07 | 46.97401 | 18.95947 | 17159 ft | 388 kts | 142° |
| 2026-04-30 15:08 | 46.92991 | 19.00546 | 18119 ft | 395 kts | 142° |
| 2026-04-30 15:08 | 46.86162 | 19.07538 | 19592 ft | 405 kts | 144° |
| 2026-04-30 15:09 | 46.81365 | 19.11980 | 20576 ft | 411 kts | 146° |
| 2026-04-30 15:09 | 46.76475 | 19.16417 | 21488 ft | 417 kts | 145° |
| 2026-04-30 15:10 | 46.71542 | 19.20970 | 22336 ft | 422 kts | 144° |
| 2026-04-30 15:11 | 46.61518 | 19.30270 | 23869 ft | 432 kts | 144° |
| 2026-04-30 15:11 | 46.56416 | 19.34980 | 24571 ft | 437 kts | 145° |
| 2026-04-30 15:12 | 46.48662 | 19.42112 | 25572 ft | 443 kts | 145° |
| 2026-04-30 15:13 | 46.43420 | 19.46916 | 26181 ft | 448 kts | 145° |
| 2026-04-30 15:14 | 46.32792 | 19.56627 | 27352 ft | 456 kts | 146° |
| 2026-04-30 15:14 | 46.24693 | 19.64000 | 28219 ft | 460 kts | 146° |
| 2026-04-30 15:16 | 46.10722 | 19.75115 | 30046 ft | 458 kts | 152° |
| 2026-04-30 15:17 | 46.00250 | 19.82487 | 31294 ft | 457 kts | 153° |
| 2026-04-30 15:18 | 45.84998 | 19.93166 | 32989 ft | 457 kts | 154° |
| 2026-04-30 15:19 | 45.76427 | 19.99148 | 33880 ft | 457 kts | 154° |
| 2026-04-30 17:39 | 29.90032 | 31.55247 | 34977 ft | 504 kts | 148° |
| 2026-04-30 17:42 | 29.61864 | 31.79145 | 35001 ft | 504 kts | 148° |
| 2026-04-30 17:43 | 29.47757 | 31.91075 | 35005 ft | 503 kts | 149° |
| 2026-04-30 17:44 | 29.30781 | 32.05333 | 35008 ft | 505 kts | 149° |
| 2026-04-30 17:47 | 29.05289 | 32.26665 | 35013 ft | 505 kts | 149° |
| 2026-04-30 17:48 | 28.85399 | 32.43209 | 34995 ft | 505 kts | 149° |
| 2026-04-30 17:50 | 28.62702 | 32.62007 | 34972 ft | 505 kts | 150° |
| 2026-04-30 17:52 | 28.45619 | 32.76091 | 34959 ft | 505 kts | 149° |
| 2026-04-30 17:54 | 28.19977 | 32.97106 | 34935 ft | 504 kts | 150° |
| 2026-04-30 17:56 | 27.97221 | 33.15649 | 34925 ft | 504 kts | 150° |
| 2026-04-30 17:58 | 27.80145 | 33.29490 | 34938 ft | 503 kts | 150° |
| 2026-04-30 18:00 | 27.57430 | 33.47852 | 34947 ft | 501 kts | 150° |
| 2026-04-30 18:01 | 27.43248 | 33.59251 | 34941 ft | 501 kts | 150° |
| 2026-04-30 18:02 | 27.26216 | 33.72896 | 34947 ft | 503 kts | 150° |
| 2026-04-30 18:03 | 27.18285 | 33.80681 | 34948 ft | 515 kts | 130° |
| 2026-04-30 18:04 | 27.13550 | 33.91573 | 34935 ft | 521 kts | 113° |
| 2026-04-30 18:06 | 27.02726 | 34.21852 | 34961 ft | 522 kts | 114° |
| 2026-04-30 18:08 | 26.93208 | 34.48306 | 34951 ft | 523 kts | 114° |
| 2026-04-30 18:10 | 26.82283 | 34.78479 | 34950 ft | 523 kts | 114° |
| 2026-04-30 18:11 | 26.72672 | 35.04825 | 34950 ft | 524 kts | 114° |
| 2026-04-30 18:13 | 26.65752 | 35.23677 | 34944 ft | 524 kts | 115° |
| 2026-04-30 18:14 | 26.58817 | 35.42476 | 34932 ft | 523 kts | 115° |
| 2026-04-30 18:15 | 26.50336 | 35.64938 | 34930 ft | 523 kts | 117° |
| 2026-04-30 18:16 | 26.44714 | 35.79548 | 34921 ft | 524 kts | 116° |
| 2026-04-30 18:17 | 26.41867 | 35.86979 | 34922 ft | 525 kts | 116° |
| 2026-04-30 18:18 | 26.37568 | 35.98201 | 34918 ft | 525 kts | 117° |
| 2026-04-30 18:18 | 26.34679 | 36.05680 | 34920 ft | 525 kts | 117° |
| 2026-04-30 18:19 | 26.31778 | 36.13152 | 34921 ft | 525 kts | 117° |
| 2026-04-30 18:19 | 26.28882 | 36.20630 | 34923 ft | 526 kts | 117° |
| 2026-04-30 18:20 | 26.25981 | 36.28104 | 34925 ft | 526 kts | 117° |
| 2026-04-30 18:20 | 26.23081 | 36.35578 | 34924 ft | 525 kts | 117° |
| 2026-04-30 18:21 | 26.20177 | 36.43041 | 34925 ft | 525 kts | 117° |
| 2026-04-30 18:21 | 26.17144 | 36.50414 | 34920 ft | 521 kts | 123° |
| 2026-04-30 18:22 | 26.13675 | 36.57496 | 34921 ft | 521 kts | 123° |
| 2026-04-30 18:22 | 26.08444 | 36.68085 | 34918 ft | 520 kts | 123° |
| 2026-04-30 18:23 | 26.04950 | 36.75134 | 34913 ft | 520 kts | 123° |
| 2026-04-30 18:23 | 26.01467 | 36.82184 | 34913 ft | 520 kts | 123° |
| 2026-04-30 18:24 | 25.96253 | 36.92715 | 34923 ft | 521 kts | 124° |
| 2026-04-30 18:25 | 25.92729 | 36.99808 | 34930 ft | 521 kts | 124° |
| 2026-04-30 18:25 | 25.87500 | 37.10315 | 34934 ft | 521 kts | 124° |
| 2026-04-30 18:26 | 25.82238 | 37.20865 | 34931 ft | 521 kts | 125° |
| 2026-04-30 18:27 | 25.76975 | 37.31413 | 34936 ft | 521 kts | 125° |
| 2026-04-30 18:28 | 25.71733 | 37.41973 | 34937 ft | 521 kts | 125° |
| 2026-04-30 18:28 | 25.67060 | 37.51330 | 34937 ft | 521 kts | 125° |
| 2026-04-30 18:29 | 25.60032 | 37.65369 | 34931 ft | 522 kts | 125° |
| 2026-04-30 18:30 | 25.52981 | 37.79423 | 34936 ft | 522 kts | 125° |
| 2026-04-30 18:31 | 25.47678 | 37.89942 | 34938 ft | 521 kts | 126° |
| 2026-04-30 18:32 | 25.42389 | 38.00441 | 34933 ft | 520 kts | 126° |
| 2026-04-30 18:33 | 25.37085 | 38.10912 | 34937 ft | 520 kts | 126° |
| 2026-04-30 18:33 | 25.31776 | 38.21377 | 34924 ft | 520 kts | 126° |
| 2026-04-30 18:34 | 25.26472 | 38.31831 | 34931 ft | 520 kts | 126° |
| 2026-04-30 18:35 | 25.22927 | 38.38787 | 34930 ft | 520 kts | 126° |
| 2026-04-30 18:35 | 25.19391 | 38.45748 | 34931 ft | 519 kts | 126° |
| 2026-04-30 18:36 | 25.14097 | 38.56107 | 34925 ft | 519 kts | 126° |
| 2026-04-30 18:37 | 25.08761 | 38.66498 | 34925 ft | 519 kts | 126° |
| 2026-04-30 18:37 | 25.05209 | 38.73417 | 34922 ft | 518 kts | 126° |
| 2026-04-30 18:38 | 25.01653 | 38.80337 | 34938 ft | 519 kts | 126° |
| 2026-04-30 18:38 | 24.98089 | 38.87246 | 34939 ft | 518 kts | 127° |
| 2026-04-30 18:39 | 24.94522 | 38.94147 | 34942 ft | 518 kts | 126° |
| 2026-04-30 18:39 | 24.90954 | 39.01050 | 34945 ft | 518 kts | 127° |
| 2026-04-30 18:40 | 24.87387 | 39.07931 | 34945 ft | 517 kts | 127° |
| 2026-04-30 18:40 | 24.83824 | 39.14813 | 34959 ft | 517 kts | 127° |
| 2026-04-30 18:41 | 24.80259 | 39.21685 | 34964 ft | 517 kts | 127° |
| 2026-04-30 18:41 | 24.76714 | 39.28497 | 34970 ft | 516 kts | 127° |
| 2026-04-30 18:42 | 24.73143 | 39.35354 | 34978 ft | 516 kts | 127° |
| 2026-04-30 18:42 | 24.67790 | 39.45621 | 34986 ft | 515 kts | 127° |
| 2026-04-30 18:45 | 24.53676 | 39.81673 | 34987 ft | 534 kts | 99° |
| 2026-04-30 18:45 | 24.53289 | 39.85735 | 34987 ft | 534 kts | 99° |
| 2026-04-30 18:46 | 24.52508 | 39.93858 | 34989 ft | 535 kts | 99° |
| 2026-04-30 18:46 | 24.51728 | 40.01984 | 34987 ft | 535 kts | 99° |
| 2026-04-30 18:47 | 24.50936 | 40.10105 | 34996 ft | 535 kts | 99° |
| 2026-04-30 18:47 | 24.50128 | 40.18222 | 34995 ft | 535 kts | 100° |
| 2026-04-30 18:48 | 24.49324 | 40.26337 | 34995 ft | 535 kts | 100° |
| 2026-04-30 18:48 | 24.48519 | 40.34457 | 35002 ft | 535 kts | 100° |
| 2026-04-30 18:49 | 24.47717 | 40.42565 | 34995 ft | 534 kts | 100° |
| 2026-04-30 18:49 | 24.46914 | 40.50672 | 34998 ft | 534 kts | 100° |
| 2026-04-30 18:50 | 24.46095 | 40.58769 | 34987 ft | 534 kts | 100° |
| 2026-04-30 18:50 | 24.45270 | 40.66864 | 34988 ft | 534 kts | 100° |
| 2026-04-30 18:51 | 24.44453 | 40.74961 | 34994 ft | 533 kts | 100° |
| 2026-04-30 18:51 | 24.43630 | 40.83054 | 34994 ft | 533 kts | 100° |
| 2026-04-30 18:52 | 24.42801 | 40.91141 | 34987 ft | 533 kts | 100° |
| 2026-04-30 18:52 | 24.41962 | 40.99224 | 34997 ft | 533 kts | 101° |
| 2026-04-30 18:53 | 24.41119 | 41.07296 | 35000 ft | 532 kts | 101° |
| 2026-04-30 18:53 | 24.40278 | 41.15362 | 35019 ft | 532 kts | 101° |
| 2026-04-30 18:54 | 24.39424 | 41.23424 | 35032 ft | 532 kts | 101° |
| 2026-04-30 18:54 | 24.38573 | 41.31420 | 35041 ft | 531 kts | 101° |
| 2026-04-30 18:55 | 24.37708 | 41.39520 | 35043 ft | 531 kts | 101° |
| 2026-04-30 18:55 | 24.36418 | 41.51568 | 35053 ft | 530 kts | 101° |
| 2026-04-30 18:56 | 24.35130 | 41.63591 | 35053 ft | 529 kts | 101° |
| 2026-04-30 18:57 | 24.33834 | 41.75582 | 35046 ft | 527 kts | 101° |
| 2026-04-30 18:57 | 24.32779 | 41.83515 | 35041 ft | 521 kts | 110° |
| 2026-04-30 18:58 | 24.29791 | 41.94918 | 35042 ft | 519 kts | 112° |
| 2026-04-30 18:59 | 24.26800 | 42.06311 | 35041 ft | 518 kts | 112° |
| 2026-04-30 19:00 | 24.22805 | 42.21464 | 35044 ft | 517 kts | 112° |
| 2026-04-30 19:01 | 24.18787 | 42.36579 | 35033 ft | 517 kts | 112° |
| 2026-04-30 19:02 | 24.15763 | 42.47912 | 35026 ft | 517 kts | 112° |
| 2026-04-30 19:03 | 24.11733 | 42.63019 | 35019 ft | 517 kts | 112° |
| 2026-04-30 19:04 | 24.07678 | 42.78113 | 35019 ft | 517 kts | 112° |
| 2026-04-30 19:05 | 24.03613 | 42.93210 | 35024 ft | 517 kts | 112° |
| 2026-04-30 19:06 | 23.99521 | 43.08274 | 35026 ft | 516 kts | 112° |
| 2026-04-30 19:06 | 23.96453 | 43.19538 | 35040 ft | 514 kts | 112° |
| 2026-04-30 19:07 | 23.93392 | 43.30761 | 35040 ft | 513 kts | 112° |
| 2026-04-30 19:08 | 23.89308 | 43.45675 | 35038 ft | 512 kts | 112° |
| 2026-04-30 19:09 | 23.86240 | 43.56838 | 35036 ft | 511 kts | 112° |
| 2026-04-30 19:09 | 23.84185 | 43.64280 | 35036 ft | 512 kts | 112° |
| 2026-04-30 19:10 | 23.80076 | 43.79169 | 35034 ft | 512 kts | 112° |
| 2026-04-30 19:11 | 23.77295 | 43.90438 | 35025 ft | 518 kts | 101° |
| 2026-04-30 19:12 | 23.76692 | 43.98307 | 35024 ft | 520 kts | 98° |
| 2026-04-30 19:12 | 23.76109 | 44.06183 | 35025 ft | 520 kts | 98° |
| 2026-04-30 19:13 | 23.75022 | 44.20596 | 35022 ft | 520 kts | 99° |
| 2026-04-30 19:14 | 23.74424 | 44.28463 | 35024 ft | 520 kts | 98° |
| 2026-04-30 19:14 | 23.73821 | 44.36327 | 35024 ft | 520 kts | 99° |
| 2026-04-30 19:15 | 23.73220 | 44.44188 | 35023 ft | 519 kts | 98° |
| 2026-04-30 19:15 | 23.72313 | 44.55963 | 35021 ft | 518 kts | 99° |
| 2026-04-30 19:16 | 23.71701 | 44.63798 | 35021 ft | 518 kts | 99° |
| 2026-04-30 19:17 | 23.70782 | 44.75539 | 35022 ft | 517 kts | 99° |
| 2026-04-30 19:17 | 23.69845 | 44.87276 | 35017 ft | 518 kts | 99° |
| 2026-04-30 19:18 | 23.68910 | 44.99011 | 35022 ft | 517 kts | 99° |
| 2026-04-30 19:19 | 23.68276 | 45.06828 | 35023 ft | 517 kts | 99° |
| 2026-04-30 19:19 | 23.67307 | 45.18542 | 35025 ft | 517 kts | 99° |
| 2026-04-30 19:20 | 23.66668 | 45.26353 | 35023 ft | 517 kts | 99° |
| 2026-04-30 19:21 | 23.65748 | 45.37542 | 34999 ft | 516 kts | 99° |
| 2026-04-30 19:22 | 23.64455 | 45.52772 | 35004 ft | 517 kts | 99° |
| 2026-04-30 19:23 | 23.62489 | 45.76222 | 35012 ft | 517 kts | 99° |
| 2026-04-30 19:24 | 23.61481 | 45.87940 | 35020 ft | 518 kts | 99° |
| 2026-04-30 19:25 | 23.59791 | 46.07435 | 35022 ft | 518 kts | 99° |
| 2026-04-30 19:26 | 23.58411 | 46.23063 | 35027 ft | 517 kts | 99° |
| 2026-04-30 19:27 | 23.57366 | 46.34775 | 35016 ft | 517 kts | 99° |
| 2026-04-30 19:28 | 23.56313 | 46.46465 | 35018 ft | 516 kts | 99° |
| 2026-04-30 19:29 | 23.54910 | 46.62036 | 35018 ft | 515 kts | 99° |
| 2026-04-30 19:30 | 23.53451 | 46.77604 | 35020 ft | 514 kts | 99° |
| 2026-04-30 19:31 | 23.52033 | 46.93028 | 35025 ft | 513 kts | 99° |
| 2026-04-30 19:31 | 23.50952 | 47.04617 | 35026 ft | 512 kts | 99° |
| 2026-04-30 19:32 | 23.50220 | 47.12320 | 35026 ft | 511 kts | 99° |
| 2026-04-30 19:32 | 23.49486 | 47.20026 | 35023 ft | 511 kts | 99° |
| 2026-04-30 19:33 | 23.48755 | 47.27728 | 35023 ft | 511 kts | 99° |
| 2026-04-30 19:33 | 23.48019 | 47.35426 | 35023 ft | 511 kts | 99° |
| 2026-04-30 19:34 | 23.47277 | 47.43116 | 35023 ft | 510 kts | 99° |
| 2026-04-30 19:35 | 23.46148 | 47.54644 | 35024 ft | 510 kts | 99° |
| 2026-04-30 19:35 | 23.45398 | 47.62330 | 35022 ft | 511 kts | 99° |
| 2026-04-30 19:36 | 23.44652 | 47.70018 | 35018 ft | 511 kts | 99° |
| 2026-04-30 19:36 | 23.43523 | 47.81551 | 35011 ft | 510 kts | 100° |
| 2026-04-30 19:37 | 23.42762 | 47.89233 | 35007 ft | 511 kts | 100° |
| 2026-04-30 19:37 | 23.41990 | 47.96924 | 35013 ft | 511 kts | 100° |
| 2026-04-30 19:38 | 23.41215 | 48.04616 | 35015 ft | 511 kts | 99° |
| 2026-04-30 19:38 | 23.40438 | 48.12309 | 35019 ft | 511 kts | 99° |
| 2026-04-30 19:39 | 23.39667 | 48.20003 | 35025 ft | 511 kts | 99° |
| 2026-04-30 19:39 | 23.38887 | 48.27695 | 35027 ft | 511 kts | 100° |
| 2026-04-30 19:40 | 23.38109 | 48.35380 | 35027 ft | 511 kts | 98° |
| 2026-04-30 19:40 | 23.37678 | 48.43100 | 35027 ft | 511 kts | 95° |
| 2026-04-30 19:41 | 23.37502 | 48.50838 | 35017 ft | 511 kts | 94° |
| 2026-04-30 19:41 | 23.37283 | 48.58568 | 35015 ft | 510 kts | 95° |
| 2026-04-30 19:42 | 23.36961 | 48.66274 | 35011 ft | 509 kts | 96° |
| 2026-04-30 19:42 | 23.36605 | 48.73964 | 35011 ft | 509 kts | 96° |
| 2026-04-30 19:43 | 23.36266 | 48.81664 | 35010 ft | 509 kts | 95° |
| 2026-04-30 19:44 | 23.35778 | 48.93203 | 35013 ft | 509 kts | 95° |
| 2026-04-30 19:44 | 23.35448 | 49.00890 | 35012 ft | 508 kts | 95° |
| 2026-04-30 19:45 | 23.35114 | 49.08566 | 35013 ft | 508 kts | 95° |
| 2026-04-30 19:45 | 23.34768 | 49.16237 | 35011 ft | 507 kts | 96° |
| 2026-04-30 19:46 | 23.34421 | 49.23903 | 35016 ft | 507 kts | 95° |
| 2026-04-30 19:46 | 23.34066 | 49.31559 | 35009 ft | 506 kts | 95° |
| 2026-04-30 19:47 | 23.33716 | 49.39201 | 35003 ft | 506 kts | 95° |
| 2026-04-30 19:47 | 23.33364 | 49.46840 | 34999 ft | 505 kts | 96° |
| 2026-04-30 19:48 | 23.33004 | 49.54425 | 34990 ft | 505 kts | 96° |
| 2026-04-30 19:48 | 23.32627 | 49.62104 | 34976 ft | 505 kts | 96° |
| 2026-04-30 19:49 | 23.32261 | 49.69747 | 34968 ft | 506 kts | 96° |
| 2026-04-30 19:49 | 23.31713 | 49.81220 | 34962 ft | 506 kts | 96° |
| 2026-04-30 19:50 | 23.31330 | 49.88865 | 34961 ft | 506 kts | 96° |
| 2026-04-30 19:50 | 23.30947 | 49.96507 | 34961 ft | 506 kts | 96° |
| 2026-04-30 19:51 | 23.30564 | 50.04150 | 34965 ft | 506 kts | 96° |
| 2026-04-30 19:51 | 23.30171 | 50.11786 | 34969 ft | 505 kts | 96° |
| 2026-04-30 19:52 | 23.29783 | 50.19416 | 34969 ft | 505 kts | 96° |
| 2026-04-30 19:52 | 23.29391 | 50.27044 | 34969 ft | 505 kts | 96° |
| 2026-04-30 19:53 | 23.28992 | 50.34616 | 34970 ft | 504 kts | 96° |
| 2026-04-30 19:53 | 23.28583 | 50.42232 | 34971 ft | 504 kts | 96° |
| 2026-04-30 19:54 | 23.28175 | 50.49840 | 34971 ft | 504 kts | 96° |
| 2026-04-30 19:54 | 23.27771 | 50.57448 | 34972 ft | 504 kts | 96° |
| 2026-04-30 19:55 | 23.27365 | 50.65051 | 34974 ft | 504 kts | 96° |
| 2026-04-30 19:55 | 23.26944 | 50.72648 | 34971 ft | 503 kts | 96° |
| 2026-04-30 19:56 | 23.26515 | 50.80245 | 34968 ft | 503 kts | 96° |
| 2026-04-30 19:56 | 23.26160 | 50.86600 | 34966 ft | 502 kts | 96° |
| 2026-04-30 19:57 | 23.25732 | 50.94185 | 34966 ft | 502 kts | 96° |
| 2026-04-30 19:57 | 23.25580 | 51.01776 | 34962 ft | 505 kts | 83° |
| 2026-04-30 19:58 | 23.26412 | 51.05479 | 34961 ft | 505 kts | 69° |
| 2026-04-30 19:58 | 23.27982 | 51.08882 | 34959 ft | 504 kts | 55° |
| 2026-04-30 19:58 | 23.30220 | 51.11803 | 34957 ft | 501 kts | 40° |
| 2026-04-30 19:58 | 23.32977 | 51.14074 | 34949 ft | 495 kts | 27° |
| 2026-04-30 19:59 | 23.36086 | 51.15622 | 34938 ft | 490 kts | 15° |
| 2026-04-30 19:59 | 23.39357 | 51.16573 | 34935 ft | 485 kts | 5° |
| 2026-04-30 20:00 | 23.49394 | 51.17459 | 34935 ft | 483 kts | 359° |
| 2026-04-30 20:00 | 23.56107 | 51.17931 | 34930 ft | 483 kts | 359° |
| 2026-04-30 20:01 | 23.66175 | 51.18671 | 34931 ft | 483 kts | 359° |
| 2026-04-30 20:01 | 23.72855 | 51.19170 | 34920 ft | 472 kts | 359° |
| 2026-04-30 20:02 | 23.79310 | 51.19643 | 34214 ft | 463 kts | 359° |
| 2026-04-30 20:02 | 23.82522 | 51.19875 | 33714 ft | 462 kts | 359° |
| 2026-04-30 20:03 | 23.88920 | 51.20340 | 32704 ft | 460 kts | 358° |
| 2026-04-30 20:03 | 23.92104 | 51.20574 | 32218 ft | 458 kts | 358° |
| 2026-04-30 20:03 | 23.95276 | 51.20809 | 31716 ft | 456 kts | 358° |
| 2026-04-30 20:03 | 23.98437 | 51.21044 | 31216 ft | 454 kts | 358° |
| 2026-04-30 20:04 | 24.01579 | 51.21278 | 30716 ft | 451 kts | 358° |
| 2026-04-30 20:04 | 24.04702 | 51.21511 | 30217 ft | 449 kts | 357° |
| 2026-04-30 20:04 | 24.07817 | 51.21741 | 29716 ft | 447 kts | 356° |
| 2026-04-30 20:05 | 24.13993 | 51.22193 | 28717 ft | 443 kts | 357° |
| 2026-04-30 20:05 | 24.17061 | 51.22424 | 28218 ft | 441 kts | 357° |
| 2026-04-30 20:05 | 24.23144 | 51.22883 | 26843 ft | 445 kts | 358° |
| 2026-04-30 20:06 | 24.26278 | 51.23109 | 25645 ft | 457 kts | 358° |
| 2026-04-30 20:06 | 24.29488 | 51.23419 | 24430 ft | 471 kts | 6° |
| 2026-04-30 20:06 | 24.32606 | 51.24409 | 23848 ft | 472 kts | 20° |
| 2026-04-30 20:06 | 24.35455 | 51.26090 | 23734 ft | 459 kts | 32° |
| 2026-04-30 20:07 | 24.37903 | 51.28269 | 23628 ft | 447 kts | 40° |
| 2026-04-30 20:07 | 24.40158 | 51.30561 | 23327 ft | 440 kts | 41° |
| 2026-04-30 20:07 | 24.44641 | 51.35170 | 22095 ft | 442 kts | 41° |
| 2026-04-30 20:08 | 24.46878 | 51.37490 | 21483 ft | 443 kts | 41° |
| 2026-04-30 20:08 | 24.49145 | 51.39843 | 20865 ft | 442 kts | 41° |
| 2026-04-30 20:08 | 24.51391 | 51.42061 | 20249 ft | 439 kts | 35° |
| 2026-04-30 20:08 | 24.53867 | 51.44014 | 19626 ft | 437 kts | 33° |
| 2026-04-30 20:09 | 24.56357 | 51.45917 | 18997 ft | 434 kts | 33° |
| 2026-04-30 20:09 | 24.58852 | 51.47818 | 18361 ft | 426 kts | 33° |
| 2026-04-30 20:09 | 24.63604 | 51.51432 | 17117 ft | 410 kts | 33° |
| 2026-04-30 20:10 | 24.68205 | 51.54930 | 15868 ft | 395 kts | 33° |
| 2026-04-30 20:10 | 24.70444 | 51.56633 | 15244 ft | 387 kts | 33° |
| 2026-04-30 20:10 | 24.72671 | 51.58329 | 14607 ft | 381 kts | 33° |
| 2026-04-30 20:11 | 24.76965 | 51.61596 | 13356 ft | 370 kts | 32° |
| 2026-04-30 20:11 | 24.79067 | 51.63200 | 12727 ft | 364 kts | 33° |
| 2026-04-30 20:11 | 24.81115 | 51.64766 | 12106 ft | 354 kts | 32° |
| 2026-04-30 20:12 | 24.85056 | 51.67778 | 10989 ft | 335 kts | 33° |
| 2026-04-30 20:12 | 24.86940 | 51.69208 | 10494 ft | 326 kts | 33° |
| 2026-04-30 20:12 | 24.88776 | 51.70594 | 9998 ft | 318 kts | 33° |
| 2026-04-30 20:13 | 24.90625 | 51.71863 | 9492 ft | 308 kts | 21° |
| 2026-04-30 20:13 | 24.92658 | 51.72404 | 8976 ft | 298 kts | 5° |
| 2026-04-30 20:13 | 24.94707 | 51.72625 | 8339 ft | 295 kts | 3° |
| 2026-04-30 20:13 | 24.96753 | 51.72768 | 7715 ft | 291 kts | 356° |
| 2026-04-30 20:14 | 24.98686 | 51.72347 | 7087 ft | 286 kts | 338° |
| 2026-04-30 20:14 | 25.00548 | 51.71533 | 6444 ft | 282 kts | 337° |
| 2026-04-30 20:14 | 25.02362 | 51.70727 | 5822 ft | 280 kts | 338° |
| 2026-04-30 20:14 | 25.04165 | 51.69936 | 5195 ft | 276 kts | 338° |
| 2026-04-30 20:15 | 25.05940 | 51.69158 | 4537 ft | 274 kts | 338° |
| 2026-04-30 20:15 | 25.07685 | 51.68392 | 3838 ft | 272 kts | 338° |
| 2026-04-30 20:15 | 25.09411 | 51.67634 | 3405 ft | 261 kts | 339° |
| 2026-04-30 20:15 | 25.11061 | 51.66911 | 3050 ft | 249 kts | 339° |
| 2026-04-30 20:16 | 25.12628 | 51.66222 | 2727 ft | 236 kts | 339° |
| 2026-04-30 20:16 | 25.14108 | 51.65570 | 2420 ft | 223 kts | 339° |
| 2026-04-30 20:16 | 25.15508 | 51.64955 | 2134 ft | 210 kts | 339° |
| 2026-04-30 20:16 | 25.16837 | 51.64373 | 1860 ft | 200 kts | 338° |
| 2026-04-30 20:17 | 25.18100 | 51.63817 | 1609 ft | 191 kts | 338° |
| 2026-04-30 20:17 | 25.19287 | 51.63294 | 1379 ft | 178 kts | 338° |
| 2026-04-30 20:17 | 25.20396 | 51.62806 | 1117 ft | 164 kts | 338° |
| 2026-04-30 20:17 | 25.21401 | 51.62364 | 927 ft | 144 kts | 338° |
| 2026-04-30 20:18 | 25.22288 | 51.61974 | 738 ft | 133 kts | 338° |
| 2026-04-30 20:18 | 25.23126 | 51.61605 | 565 ft | 131 kts | 338° |
| 2026-04-30 20:18 | 25.23972 | 51.61233 | 386 ft | 131 kts | 338° |
| 2026-04-30 20:18 | 25.24817 | 51.60856 | 212 ft | 131 kts | 338° |
| 2026-04-30 20:19 | 25.25677 | 51.60480 | 49 ft | 131 kts | 338° |
| 2026-04-30 20:19 | 25.26207 | 51.60249 | 29 ft | 113 kts | 338° |
| 2026-04-30 20:19 | 25.26890 | 51.59947 | 25 ft | 47 kts | 338° |
| 2026-04-30 20:19 | 25.27083 | 51.59862 | 30 ft | 24 kts | 340° |
| 2026-04-30 20:20 | 25.27230 | 51.59824 | 28 ft | 17 kts | 354° |
| 2026-04-30 20:20 | 25.27342 | 51.59824 | 27 ft | 9 kts | 5° |
| 2026-04-30 20:20 | 25.27389 | 51.59831 | 27 ft | 7 kts | 13° |
| 2026-04-30 20:20 | 25.27424 | 51.59873 | 28 ft | 8 kts | 75° |
| 2026-04-30 20:21 | 25.27393 | 51.59928 | 29 ft | 10 kts | 149° |
| 2026-04-30 20:21 | 25.27318 | 51.59962 | 29 ft | 13 kts | 159° |
| 2026-04-30 20:21 | 25.27225 | 51.60001 | 29 ft | 16 kts | 159° |
| 2026-04-30 20:21 | 25.27111 | 51.60053 | 29 ft | 19 kts | 158° |
| 2026-04-30 20:22 | 25.26978 | 51.60113 | 28 ft | 23 kts | 159° |
| 2026-04-30 20:22 | 25.26823 | 51.60179 | 28 ft | 23 kts | 159° |
| 2026-04-30 20:22 | 25.26686 | 51.60240 | 28 ft | 22 kts | 158° |
| 2026-04-30 20:22 | 25.26537 | 51.60307 | 29 ft | 25 kts | 158° |
| 2026-04-30 20:23 | 25.26372 | 51.60377 | 29 ft | 25 kts | 159° |
| 2026-04-30 20:23 | 25.26239 | 51.60436 | 30 ft | 17 kts | 158° |
| 2026-04-30 20:23 | 25.26155 | 51.60474 | 29 ft | 9 kts | 147° |
| 2026-04-30 20:23 | 25.26135 | 51.60535 | 30 ft | 9 kts | 82° |
| 2026-04-30 20:24 | 25.26109 | 51.60602 | 30 ft | 11 kts | 136° |
| 2026-04-30 20:24 | 25.26086 | 51.60675 | 30 ft | 10 kts | 88° |
| 2026-04-30 20:24 | 25.26040 | 51.60739 | 30 ft | 12 kts | 156° |
| 2026-04-30 20:24 | 25.25967 | 51.60773 | 30 ft | 9 kts | 148° |
| 2026-04-30 20:25 | 25.25957 | 51.60865 | 30 ft | 4 kts | 69° |
| 2026-04-30 20:25 | 25.25961 | 51.60877 | 30 ft | 0 kts | 69° |